Time;durP1;ratioP1;P1;durP2;ratioP2;P2;SDS_P1;SDS_P2;PMS_P1;PMS_P2;Temp;Humidity;BMP_temperature;BMP_pressure;BME280_temperature;BME280_humidity;BME280_pressure;Samples;Min_cycle;Max_cycle;Signal;HPM_P1;HPM_P2
2022/05/01 00:01:07;;;;;;;17.23;10.45;;;7.60;98.20;;;;;;5056205;28;20490;-71
2022/05/01 00:03:36;;;;;;;16.33;10.82;;;7.50;98.30;;;;;;5056144;28;20043;-71
2022/05/01 00:06:04;;;;;;;16.50;10.85;;;7.50;98.50;;;;;;5038541;28;20125;-71
2022/05/01 00:08:34;;;;;;;17.05;11.40;;;7.50;98.50;;;;;;5038448;28;20047;-71
2022/05/01 00:11:00;;;;;;;20.55;11.07;;;7.50;98.60;;;;;;5037996;28;20107;-71
2022/05/01 00:13:28;;;;;;;16.90;10.98;;;7.50;98.60;;;;;;5055992;28;20044;-71
2022/05/01 00:15:54;;;;;;;17.48;10.48;;;7.50;98.50;;;;;;5038299;28;20041;-71
2022/05/01 00:18:20;;;;;;;15.63;11.20;;;7.60;98.70;;;;;;5056147;28;20083;-71
2022/05/01 00:20:46;;;;;;;17.88;10.70;;;7.60;98.50;;;;;;5037848;28;20055;-71
2022/05/01 00:23:13;;;;;;;16.40;11.00;;;7.70;98.50;;;;;;5055777;28;20076;-71
2022/05/01 00:25:41;;;;;;;13.90;9.77;;;7.70;98.30;;;;;;5055708;28;20033;-71
2022/05/01 00:28:08;;;;;;;16.02;10.88;;;7.60;98.20;;;;;;5038023;28;20052;-71
2022/05/01 00:30:35;;;;;;;17.98;10.20;;;7.60;98.30;;;;;;5054614;28;20041;-71
2022/05/01 00:38:30;;;;;;;17.65;11.02;;;7.50;98.70;;;;;;5038011;28;20135;-71
2022/05/01 00:40:56;;;;;;;18.20;11.13;;;7.50;98.70;;;;;;5037903;28;20051;-71
2022/05/01 00:43:23;;;;;;;17.38;11.50;;;7.50;98.70;;;;;;5055334;28;20037;-70
2022/05/01 00:45:48;;;;;;;19.98;11.70;;;7.40;98.70;;;;;;5055200;28;20471;-71
2022/05/01 00:48:14;;;;;;;18.17;11.85;;;7.40;98.80;;;;;;5055428;28;20083;-71
2022/05/01 00:50:41;;;;;;;17.85;11.93;;;7.40;98.70;;;;;;5054889;28;20052;-71
2022/05/01 00:53:07;;;;;;;21.50;12.13;;;7.30;98.70;;;;;;5055075;28;20040;-71
2022/05/01 00:55:33;;;;;;;18.40;11.32;;;7.30;98.70;;;;;;5037672;28;20086;-71
2022/05/01 00:58:01;;;;;;;18.17;10.98;;;7.30;98.70;;;;;;5055115;28;20124;-71
2022/05/01 01:00:27;;;;;;;22.23;12.13;;;7.20;98.60;;;;;;5055021;28;20044;-71
2022/05/01 01:02:53;;;;;;;17.00;11.32;;;7.20;98.50;;;;;;5037429;28;20049;-74
2022/05/01 01:05:19;;;;;;;17.23;10.98;;;7.10;98.50;;;;;;5054982;28;20130;-71
2022/05/01 01:07:45;;;;;;;18.23;11.48;;;7.10;98.50;;;;;;5054829;28;20107;-72
2022/05/01 01:10:12;;;;;;;16.90;11.45;;;7.10;98.50;;;;;;5054889;28;20127;-71
2022/05/01 01:12:56;;;;;;;17.83;11.80;;;7.00;98.40;;;;;;5036976;28;20126;-71
2022/05/01 01:15:23;;;;;;;44.83;13.02;;;7.00;98.30;;;;;;5055102;28;20084;-71
2022/05/01 01:17:52;;;;;;;20.45;11.95;;;6.90;98.80;;;;;;5054719;28;20075;-71
2022/05/01 01:20:18;;;;;;;16.50;11.60;;;6.90;99.20;;;;;;5036691;28;20048;-72
2022/05/01 01:22:49;;;;;;;14.82;10.00;;;6.90;99.10;;;;;;5054660;28;20041;-71
2022/05/01 01:25:24;;;;;;;15.45;10.10;;;7.00;99.20;;;;;;5054520;28;20124;-71
2022/05/01 01:27:50;;;;;;;14.43;10.13;;;6.90;98.90;;;;;;5037357;28;20053;-71
2022/05/01 01:33:02;;;;;;;18.23;11.00;;;6.80;98.80;;;;;;5036589;28;20059;-71
2022/05/01 01:35:29;;;;;;;15.05;10.07;;;6.80;98.80;;;;;;5054392;28;20116;-71
2022/05/01 01:37:55;;;;;;;13.75;9.95;;;6.80;99.00;;;;;;5054366;28;20045;-71
2022/05/01 01:40:23;;;;;;;15.27;9.52;;;6.80;98.90;;;;;;5036378;28;20048;-71
2022/05/01 01:42:55;;;;;;;14.23;9.85;;;6.70;98.80;;;;;;5054236;28;20037;-71
2022/05/01 01:45:22;;;;;;;15.30;10.25;;;6.70;98.70;;;;;;5054246;28;20045;-71
2022/05/01 01:47:49;;;;;;;18.65;10.45;;;6.70;98.90;;;;;;5053995;28;20048;-71
2022/05/01 01:50:18;;;;;;;15.75;10.68;;;6.60;99.00;;;;;;5054181;28;20430;-71
2022/05/01 01:52:47;;;;;;;16.02;10.73;;;6.60;99.10;;;;;;5053706;28;20463;-71
2022/05/01 01:55:17;;;;;;;16.48;10.70;;;6.70;99.10;;;;;;5054095;28;20083;-71
2022/05/01 01:57:45;;;;;;;15.30;9.73;;;6.80;99.10;;;;;;5036544;28;20041;-71
2022/05/01 02:00:12;;;;;;;14.85;9.88;;;6.80;98.90;;;;;;5053970;28;20052;-71
2022/05/01 02:02:39;;;;;;;16.75;10.65;;;6.70;98.70;;;;;;5054098;28;20043;-71
2022/05/01 02:05:06;;;;;;;16.83;10.60;;;6.60;98.60;;;;;;5053527;28;20483;-71
2022/05/01 02:07:33;;;;;;;17.83;10.75;;;6.50;98.70;;;;;;5053948;28;20098;-71
2022/05/01 02:09:59;;;;;;;17.67;10.57;;;6.50;98.80;;;;;;5053815;28;20044;-71
2022/05/01 02:12:26;;;;;;;15.55;9.57;;;6.50;98.70;;;;;;5053692;28;20124;-72
2022/05/01 02:14:52;;;;;;;15.95;10.57;;;6.40;98.70;;;;;;5053790;28;20144;-71
2022/05/01 02:17:18;;;;;;;15.88;10.02;;;6.40;98.60;;;;;;5053677;28;20041;-71
2022/05/01 02:19:43;;;;;;;15.23;10.05;;;6.40;98.50;;;;;;5035688;28;20048;-72
2022/05/01 02:22:09;;;;;;;16.15;9.73;;;6.30;98.30;;;;;;5036176;28;20136;-71
2022/05/01 02:24:35;;;;;;;16.15;9.75;;;6.20;98.40;;;;;;5053708;28;20045;-71
2022/05/01 02:27:01;;;;;;;14.60;9.90;;;6.20;98.40;;;;;;5053576;28;20048;-72
2022/05/01 02:29:27;;;;;;;14.13;9.32;;;6.20;98.30;;;;;;5053606;28;20052;-71
2022/05/01 02:31:53;;;;;;;12.45;8.15;;;6.20;98.30;;;;;;5053503;28;20040;-71
2022/05/01 02:34:24;;;;;;;13.50;9.27;;;6.10;98.30;;;;;;5035958;28;20044;-71
2022/05/01 02:36:53;;;;;;;13.48;9.00;;;6.10;98.30;;;;;;5053462;28;20488;-71
2022/05/01 02:39:19;;;;;;;13.93;9.35;;;6.10;98.30;;;;;;5035889;28;20472;-71
2022/05/01 02:41:45;;;;;;;13.32;8.35;;;6.00;98.30;;;;;;5053474;28;20045;-71
2022/05/01 02:44:11;;;;;;;13.07;9.10;;;6.00;98.30;;;;;;5052787;28;20484;-71
2022/05/01 02:46:37;;;;;;;13.20;8.80;;;6.00;98.20;;;;;;5052358;28;20052;-73
2022/05/01 02:49:05;;;;;;;12.68;8.43;;;6.00;98.20;;;;;;5052473;28;20088;-71
2022/05/01 02:51:31;;;;;;;14.90;9.23;;;6.00;98.20;;;;;;5035630;28;20118;-72
2022/05/01 02:54:04;;;;;;;17.20;10.43;;;6.00;98.30;;;;;;5056675;28;20515;-72
2022/05/01 02:56:30;;;;;;;16.27;10.75;;;6.10;98.50;;;;;;5040351;28;20132;-71
2022/05/01 02:58:57;;;;;;;15.15;9.75;;;6.20;98.50;;;;;;5023211;28;20093;-71
2022/05/01 03:01:23;;;;;;;17.38;9.88;;;6.20;98.50;;;;;;5057165;28;20127;-71
2022/05/01 03:03:48;;;;;;;14.68;9.90;;;6.00;98.40;;;;;;5039654;28;20057;-71
2022/05/01 03:06:14;;;;;;;13.02;8.88;;;6.00;98.40;;;;;;5057165;28;20398;-71
2022/05/01 03:08:40;;;;;;;15.05;9.70;;;6.00;98.30;;;;;;5057146;28;20041;-71
2022/05/01 03:11:05;;;;;;;12.50;8.10;;;6.00;98.40;;;;;;5039278;28;20049;-72
2022/05/01 03:13:31;;;;;;;15.00;8.93;;;5.90;98.40;;;;;;5039386;28;20080;-71
2022/05/01 03:15:57;;;;;;;12.45;8.70;;;5.90;98.50;;;;;;5039482;28;20045;-71
2022/05/01 03:23:51;;;;;;;11.98;8.38;;;5.90;98.60;;;;;;5056855;28;20530;-71
2022/05/01 03:26:18;;;;;;;12.20;7.88;;;5.90;98.50;;;;;;5056781;28;20041;-71
2022/05/01 03:28:44;;;;;;;10.07;7.70;;;5.90;98.60;;;;;;5056864;28;20045;-71
2022/05/01 03:31:11;;;;;;;9.90;7.65;;;5.80;98.50;;;;;;5056590;28;20045;-71
2022/05/01 03:33:38;;;;;;;11.50;8.07;;;5.80;98.40;;;;;;5039152;28;20107;-71
2022/05/01 03:36:06;;;;;;;9.50;7.45;;;5.70;98.30;;;;;;5056630;28;20163;-71
2022/05/01 03:38:35;;;;;;;9.27;7.50;;;5.60;98.70;;;;;;5039006;28;20041;-71
2022/05/01 03:41:01;;;;;;;10.88;7.20;;;5.60;98.60;;;;;;5038643;28;20395;-71
2022/05/01 03:43:27;;;;;;;9.75;7.53;;;5.70;98.80;;;;;;5056526;28;20087;-71
2022/05/01 03:45:52;;;;;;;8.82;7.20;;;5.70;98.50;;;;;;5038814;28;20095;-71
2022/05/01 03:48:18;;;;;;;17.40;7.07;;;5.60;98.40;;;;;;5042641;28;20106;-72
2022/05/01 03:50:44;;;;;;;8.70;6.93;;;5.60;98.50;;;;;;5056046;28;20179;-71
2022/05/01 03:53:09;;;;;;;9.10;7.05;;;5.60;98.60;;;;;;5055590;28;20480;-71
2022/05/01 03:55:36;;;;;;;10.35;7.32;;;5.60;98.40;;;;;;5055151;28;20135;-71
2022/05/01 03:58:02;;;;;;;8.77;6.88;;;5.50;98.40;;;;;;5055102;28;20049;-71
2022/05/01 04:00:28;;;;;;;10.48;7.95;;;5.50;98.40;;;;;;5055498;28;20392;-71
2022/05/01 04:02:54;;;;;;;11.98;7.72;;;5.40;98.30;;;;;;5055856;28;20499;-71
2022/05/01 04:05:20;;;;;;;12.35;8.65;;;5.40;98.50;;;;;;5055774;28;20056;-71
2022/05/01 04:07:45;;;;;;;10.00;7.60;;;5.60;98.80;;;;;;5056072;28;20131;-71
2022/05/01 04:10:12;;;;;;;10.82;8.07;;;5.70;98.90;;;;;;5055006;28;20057;-71
2022/05/01 04:12:38;;;;;;;9.90;7.13;;;5.80;98.60;;;;;;5055938;28;20388;-71
2022/05/01 04:15:07;;;;;;;10.30;7.22;;;5.70;98.30;;;;;;5055899;28;20053;-71
2022/05/01 04:17:39;;;;;;;9.93;7.53;;;5.70;98.30;;;;;;5038331;28;20057;-72
2022/05/01 04:20:10;;;;;;;10.35;7.53;;;5.60;98.30;;;;;;5054578;28;20423;-71
2022/05/01 04:22:47;;;;;;;10.77;8.05;;;5.70;98.50;;;;;;5055850;28;20128;-71
2022/05/01 04:25:16;;;;;;;10.63;7.75;;;5.60;98.40;;;;;;5055837;28;20056;-71
2022/05/01 04:27:45;;;;;;;12.20;8.43;;;5.50;98.50;;;;;;5055811;28;20056;-71
2022/05/01 04:30:13;;;;;;;9.80;7.22;;;5.60;98.60;;;;;;5055625;28;20041;-71
2022/05/01 04:32:59;;;;;;;8.85;6.82;;;5.60;98.60;;;;;;5055443;28;20052;-71
2022/05/01 04:35:31;;;;;;;10.02;6.93;;;5.70;98.50;;;;;;5055908;28;20049;-71
2022/05/01 04:38:03;;;;;;;10.90;7.20;;;5.70;98.40;;;;;;5055648;28;20433;-71
2022/05/01 04:40:33;;;;;;;8.63;7.03;;;5.80;98.40;;;;;;5054387;28;20052;-72
2022/05/01 04:43:10;;;;;;;11.02;7.40;;;5.80;98.50;;;;;;5054438;28;20515;-71
2022/05/01 04:45:38;;;;;;;8.50;6.90;;;5.80;98.30;;;;;;5055315;28;20041;-71
2022/05/01 04:48:05;;;;;;;8.63;6.45;;;5.70;98.40;;;;;;5054108;28;20060;-71
2022/05/01 04:50:31;;;;;;;8.88;6.72;;;5.80;98.50;;;;;;5054959;28;20105;-71
2022/05/01 04:53:00;;;;;;;8.05;6.45;;;5.90;98.60;;;;;;5055215;28;20045;-71
2022/05/01 04:55:26;;;;;;;8.60;6.25;;;5.90;98.50;;;;;;5055048;28;20045;-71
2022/05/01 04:57:52;;;;;;;8.63;6.65;;;5.90;98.50;;;;;;5055064;28;20076;-71
2022/05/01 05:00:21;;;;;;;8.75;6.88;;;5.90;98.50;;;;;;5054195;28;20048;-71
2022/05/01 05:02:49;;;;;;;8.85;6.57;;;5.80;98.50;;;;;;5054919;28;20081;-71
2022/05/01 05:05:15;;;;;;;8.07;6.05;;;5.90;98.70;;;;;;5054995;28;20123;-71
2022/05/01 05:07:41;;;;;;;7.80;5.90;;;6.00;98.70;;;;;;5054863;28;20484;-72
2022/05/01 05:10:08;;;;;;;7.57;5.93;;;6.20;98.80;;;;;;5037359;28;20049;-71
2022/05/01 05:12:36;;;;;;;7.63;6.20;;;6.30;98.90;;;;;;5054811;28;20045;-71
2022/05/01 05:15:05;;;;;;;7.82;6.28;;;6.50;99.00;;;;;;5054094;28;20041;-71
2022/05/01 05:17:33;;;;;;;7.78;6.18;;;6.60;99.10;;;;;;5054745;28;20128;-71
2022/05/01 05:20:00;;;;;;;10.13;7.35;;;6.70;99.10;;;;;;5054373;28;20052;-71
2022/05/01 05:22:26;;;;;;;11.80;8.07;;;6.90;99.30;;;;;;5054636;28;20076;-72
2022/05/01 05:24:52;;;;;;;9.30;7.70;;;7.00;99.50;;;;;;5054677;28;20419;-71
2022/05/01 05:27:20;;;;;;;13.95;8.73;;;7.00;99.40;;;;;;5054550;28;20041;-71
2022/05/01 05:29:49;;;;;;;37.97;15.40;;;7.10;99.50;;;;;;5054448;28;20495;-71
2022/05/01 05:32:16;;;;;;;21.45;11.32;;;7.10;99.70;;;;;;5054370;28;20059;-71
2022/05/01 05:34:41;;;;;;;16.08;10.27;;;7.10;99.90;;;;;;5054416;28;20490;-72
2022/05/01 05:37:07;;;;;;;17.02;8.38;;;7.30;99.90;;;;;;5054723;28;20136;-71
2022/05/01 05:39:33;;;;;;;20.85;9.80;;;7.30;99.90;;;;;;5054348;28;20110;-71
2022/05/01 05:41:58;;;;;;;19.23;8.93;;;7.40;99.90;;;;;;5054202;28;20043;-71
2022/05/01 05:44:24;;;;;;;12.13;9.10;;;7.50;99.90;;;;;;5054226;28;20081;-71
2022/05/01 05:46:50;;;;;;;14.95;9.80;;;7.60;99.90;;;;;;5054132;28;20106;-71
2022/05/01 05:49:16;;;;;;;11.30;8.77;;;7.70;99.90;;;;;;5052267;28;20057;-72
2022/05/01 05:51:42;;;;;;;14.30;10.10;;;7.90;99.90;;;;;;5053937;28;20049;-71
2022/05/01 05:54:08;;;;;;;15.55;10.38;;;7.90;99.90;;;;;;5053069;28;20044;-71
2022/05/01 05:56:33;;;;;;;14.05;10.73;;;8.00;99.90;;;;;;5053111;28;20044;-71
2022/05/01 05:58:59;;;;;;;17.60;12.18;;;8.20;99.90;;;;;;5052774;28;20076;-71
2022/05/01 06:01:25;;;;;;;15.10;11.32;;;8.30;99.90;;;;;;5054093;28;20059;-71
2022/05/01 06:03:51;;;;;;;14.10;10.68;;;8.50;99.90;;;;;;5053964;28;20102;-72
2022/05/01 06:06:18;;;;;;;16.25;11.68;;;8.60;99.90;;;;;;5052913;28;20369;-71
2022/05/01 06:08:44;;;;;;;14.93;11.00;;;8.80;99.90;;;;;;5054148;28;20133;-71
2022/05/01 06:11:10;;;;;;;14.30;11.30;;;8.90;99.90;;;;;;5052779;28;20045;-71
2022/05/01 06:13:36;;;;;;;17.85;12.90;;;9.10;99.90;;;;;;5053812;28;20049;-71
2022/05/01 06:16:02;;;;;;;17.02;12.48;;;9.30;99.90;;;;;;5053861;28;20466;-72
2022/05/01 06:18:27;;;;;;;18.92;14.77;;;9.40;99.90;;;;;;5053671;28;20045;-72
2022/05/01 06:20:53;;;;;;;16.63;11.32;;;9.50;99.90;;;;;;5052309;28;20060;-71
2022/05/01 06:23:20;;;;;;;19.48;12.30;;;9.70;99.90;;;;;;5053677;28;20045;-71
2022/05/01 06:25:46;;;;;;;18.15;13.32;;;9.80;99.90;;;;;;5053565;28;20049;-71
2022/05/01 06:28:13;;;;;;;21.20;13.60;;;9.90;99.90;;;;;;5052625;28;20049;-71
2022/05/01 06:30:45;;;;;;;18.13;11.20;;;10.00;99.90;;;;;;5053542;28;20078;-71
2022/05/01 06:33:13;;;;;;;15.13;10.80;;;10.10;99.90;;;;;;5052325;28;20056;-71
2022/05/01 06:35:39;;;;;;;15.00;10.73;;;10.20;99.90;;;;;;5053541;28;20095;-71
2022/05/01 06:38:05;;;;;;;17.98;11.20;;;10.20;99.90;;;;;;5053434;28;20053;-71
2022/05/01 06:40:31;;;;;;;16.25;11.18;;;10.40;99.90;;;;;;5052932;28;20053;-71
2022/05/01 06:42:56;;;;;;;15.57;10.15;;;10.60;99.90;;;;;;5053435;28;20387;-71
2022/05/01 06:45:22;;;;;;;18.25;11.45;;;10.60;99.90;;;;;;5052273;28;20136;-71
2022/05/01 06:47:48;;;;;;;14.70;9.82;;;10.70;99.90;;;;;;5052076;28;20060;-72
2022/05/01 06:50:14;;;;;;;17.90;11.10;;;10.80;99.90;;;;;;5051878;28;20056;-71
2022/05/01 06:52:41;;;;;;;17.27;11.10;;;10.90;99.90;;;;;;5053260;28;20067;-71
2022/05/01 06:55:07;;;;;;;14.98;9.52;;;11.00;99.90;;;;;;5053307;28;20451;-71
2022/05/01 06:57:32;;;;;;;15.90;8.45;;;11.10;99.90;;;;;;5053374;28;20049;-72
2022/05/01 06:59:58;;;;;;;14.60;8.38;;;11.00;99.90;;;;;;5053621;28;20494;-71
2022/05/01 07:02:24;;;;;;;17.75;8.68;;;11.00;99.90;;;;;;5053263;28;20492;-71
2022/05/01 07:04:50;;;;;;;17.45;8.68;;;11.00;99.90;;;;;;5052978;28;20052;-71
2022/05/01 07:07:15;;;;;;;13.82;9.15;;;11.10;99.90;;;;;;5052894;28;20095;-71
2022/05/01 07:09:41;;;;;;;13.98;8.27;;;11.30;99.90;;;;;;5052588;28;20041;-72
2022/05/01 07:12:10;;;;;;;12.43;9.13;;;11.40;99.90;;;;;;5052756;28;20045;-71
2022/05/01 07:14:37;;;;;;;13.75;9.82;;;11.30;99.90;;;;;;5053123;28;20471;-71
2022/05/01 07:17:04;;;;;;;18.80;9.93;;;11.20;99.90;;;;;;5053082;28;20053;-71
2022/05/01 07:19:29;;;;;;;12.52;7.35;;;11.30;99.90;;;;;;5052858;28;20053;-71
2022/05/01 07:21:55;;;;;;;11.75;7.80;;;11.20;99.90;;;;;;5053075;28;20048;-69
2022/05/01 07:24:21;;;;;;;12.48;7.30;;;11.20;99.90;;;;;;5053050;28;20076;-71
2022/05/01 07:26:46;;;;;;;11.38;6.45;;;11.30;99.50;;;;;;5035503;28;20053;-70
2022/05/01 07:29:12;;;;;;;10.90;7.10;;;11.10;99.30;;;;;;5052091;28;20149;-71
2022/05/01 07:31:38;;;;;;;14.38;8.30;;;10.80;99.50;;;;;;5052686;28;20044;-71
2022/05/01 07:34:04;;;;;;;12.57;8.07;;;11.10;99.90;;;;;;5052368;28;20049;-71
2022/05/01 07:36:30;;;;;;;10.13;7.47;;;11.10;99.90;;;;;;5034214;28;20063;-70
2022/05/01 07:38:57;;;;;;;12.98;7.68;;;11.30;99.90;;;;;;5053692;28;20471;-72
2022/05/01 07:41:23;;;;;;;15.95;6.85;;;11.40;99.70;;;;;;5054163;28;20080;-71
2022/05/01 07:43:48;;;;;;;9.20;6.38;;;11.30;99.40;;;;;;5056351;28;20080;-71
2022/05/01 07:46:15;;;;;;;10.82;5.95;;;11.30;99.40;;;;;;5056359;28;20049;-71
2022/05/01 07:48:41;;;;;;;9.07;5.85;;;11.20;99.10;;;;;;5054991;28;20110;-71
2022/05/01 07:51:07;;;;;;;7.63;5.15;;;11.30;99.30;;;;;;5056025;28;20045;-71
2022/05/01 07:53:33;;;;;;;12.93;5.10;;;11.30;99.10;;;;;;5055905;28;20124;-67
2022/05/01 07:55:59;;;;;;;8.35;4.97;;;11.20;98.90;;;;;;5057484;28;20140;-71
2022/05/01 07:58:26;;;;;;;8.25;5.15;;;11.20;98.50;;;;;;5059324;28;20088;-70
2022/05/01 08:00:54;;;;;;;8.32;4.95;;;11.20;98.60;;;;;;5055558;28;20107;-71
2022/05/01 08:06:05;;;;;;;7.70;4.45;;;11.70;98.20;;;;;;5054329;28;20511;-71
2022/05/01 08:08:33;;;;;;;8.90;4.80;;;11.70;97.90;;;;;;5054743;28;20084;-72
2022/05/01 08:11:00;;;;;;;9.13;4.57;;;11.70;97.90;;;;;;5055943;28;20060;-72
2022/05/01 08:13:26;;;;;;;9.43;5.30;;;11.80;97.80;;;;;;5055734;28;20054;-72
2022/05/01 08:15:52;;;;;;;10.52;4.30;;;12.10;98.00;;;;;;5055821;28;20049;-71
2022/05/01 08:21:05;;;;;;;7.90;4.25;;;12.60;97.10;;;;;;5054697;28;20100;-72
2022/05/01 08:23:31;;;;;;;7.78;3.97;;;12.40;96.60;;;;;;5055656;28;20060;-71
2022/05/01 08:26:03;;;;;;;8.13;3.70;;;12.40;96.20;;;;;;5055755;28;20147;-71
2022/05/01 08:28:33;;;;;;;5.93;3.80;;;12.30;96.50;;;;;;5055732;28;20045;-72
2022/05/01 08:31:00;;;;;;;7.70;3.75;;;12.40;96.60;;;;;;5055740;28;20049;-72
2022/05/01 08:33:26;;;;;;;8.07;3.70;;;12.70;96.50;;;;;;5055522;28;20399;-71
2022/05/01 08:35:52;;;;;;;6.25;3.92;;;13.00;96.60;;;;;;5055562;28;20083;-72
2022/05/01 08:38:18;;;;;;;6.35;3.70;;;13.30;96.70;;;;;;5055469;28;20052;-72
2022/05/01 08:40:47;;;;;;;6.80;3.85;;;13.50;96.10;;;;;;5055413;28;20060;-71
2022/05/01 08:43:20;;;;;;;6.38;3.78;;;13.50;95.60;;;;;;5054080;28;20037;-73
2022/05/01 08:46:07;;;;;;;7.80;3.97;;;13.10;95.80;;;;;;5055498;28;20512;-71
2022/05/01 08:49:09;;;;;;;9.23;3.95;;;12.80;95.50;;;;;;5055234;28;20110;-71
2022/05/01 08:51:42;;;;;;;7.13;4.55;;;12.60;96.00;;;;;;5053993;28;20061;-71
2022/05/01 08:54:09;;;;;;;5.97;3.78;;;12.80;96.10;;;;;;5055137;28;20057;-71
2022/05/01 08:56:37;;;;;;;4.88;3.30;;;12.90;95.80;;;;;;5054974;28;20110;-87
2022/05/01 08:59:09;;;;;;;6.43;4.13;;;13.00;95.80;;;;;;5036897;28;20056;-71
2022/05/01 09:08:26;;;;;;;5.32;3.53;;;13.00;95.10;;;;;;5287697;23;20113;-79
2022/05/01 09:10:52;;;;;;;6.07;3.28;;;12.70;95.30;;;;;;5039925;28;20045;-81
2022/05/01 09:13:26;;;;;;;5.28;3.22;;;12.80;95.10;;;;;;5073582;28;20055;-71
2022/05/01 09:15:52;;;;;;;6.07;3.10;;;12.90;94.80;;;;;;5074068;28;20057;-71
2022/05/01 09:18:19;;;;;;;6.25;3.20;;;13.10;95.00;;;;;;5073430;28;20044;-71
2022/05/01 09:21:07;;;;;;;6.93;3.08;;;13.40;94.80;;;;;;5057110;28;20084;-71
2022/05/01 09:23:36;;;;;;;6.90;4.10;;;13.70;94.80;;;;;;5073935;28;20075;-71
2022/05/01 09:26:02;;;;;;;6.60;3.00;;;14.00;95.10;;;;;;5057041;28;20052;-72
2022/05/01 09:28:28;;;;;;;5.90;3.03;;;14.20;94.80;;;;;;5073564;28;20051;-71
2022/05/01 09:30:54;;;;;;;5.95;3.10;;;14.30;94.10;;;;;;5056899;28;20494;-75
2022/05/01 09:33:19;;;;;;;5.15;3.25;;;13.70;94.30;;;;;;5073463;28;20090;-71
2022/05/01 09:35:45;;;;;;;7.90;3.70;;;13.90;94.50;;;;;;5074314;28;20095;-72
2022/05/01 09:38:27;;;;;;;7.30;3.22;;;14.10;94.50;;;;;;5073849;28;20052;-72
2022/05/01 09:40:58;;;;;;;7.03;3.60;;;14.50;94.60;;;;;;5073268;28;20055;-71
2022/05/01 09:43:44;;;;;;;4.60;3.40;;;14.50;94.40;;;;;;5073240;28;20051;-72
2022/05/01 09:46:22;;;;;;;6.10;3.60;;;14.20;93.80;;;;;;5073046;28;20063;-72
2022/05/01 09:49:08;;;;;;;5.15;3.00;;;14.50;94.50;;;;;;5073155;28;20493;-71
2022/05/01 09:51:36;;;;;;;5.22;3.13;;;14.50;94.40;;;;;;5073078;28;20135;-72
2022/05/01 09:54:03;;;;;;;5.65;3.58;;;14.90;94.60;;;;;;5056215;28;20475;-70
2022/05/01 09:56:46;;;;;;;7.38;2.63;;;15.00;94.20;;;;;;5074018;28;20052;-70
2022/05/01 09:59:12;;;;;;;7.65;3.40;;;15.00;93.90;;;;;;5073128;28;20052;-70
2022/05/01 10:01:38;;;;;;;4.90;3.15;;;14.80;94.40;;;;;;5073586;28;20045;-70
2022/05/01 10:04:04;;;;;;;4.97;3.33;;;14.80;94.20;;;;;;5072698;28;20063;-70
2022/05/01 10:06:31;;;;;;;6.75;3.45;;;14.50;94.10;;;;;;5072775;28;20055;-70
2022/05/01 10:08:57;;;;;;;3.97;3.40;;;14.40;94.10;;;;;;5071644;28;20052;-70
2022/05/01 10:11:26;;;;;;;7.97;3.38;;;14.30;94.60;;;;;;5073760;28;20040;-70
2022/05/01 10:13:52;;;;;;;4.90;3.15;;;14.60;94.20;;;;;;5072735;28;20041;-70
2022/05/01 10:16:18;;;;;;;7.57;3.30;;;14.70;94.00;;;;;;5054986;28;20117;-91
2022/05/01 10:18:45;;;;;;;5.50;2.97;;;14.70;94.50;;;;;;5071248;28;20067;-76
2022/05/01 10:21:12;;;;;;;6.38;3.50;;;14.50;93.80;;;;;;5038700;28;20052;-76
2022/05/01 10:23:39;;;;;;;10.43;3.20;;;14.40;94.60;;;;;;5072802;28;20131;-75
2022/05/01 10:26:25;;;;;;;7.18;3.53;;;14.50;94.60;;;;;;5055969;28;20071;-76
2022/05/01 10:28:51;;;;;;;6.25;3.70;;;14.30;94.40;;;;;;5073163;28;20113;-76
2022/05/01 10:34:41;;;;;;;7.15;3.58;;;14.40;94.50;;;;;;5072608;28;20498;-81
2022/05/01 10:37:37;;;;;;;4.57;3.20;;;13.40;94.70;;;;;;5055584;28;20044;-80
2022/05/01 10:40:03;;;;;;;6.18;3.67;;;13.40;94.80;;;;;;5073552;28;20053;-90
2022/05/01 10:42:33;;;;;;;8.15;3.70;;;13.50;94.80;;;;;;5072987;28;20052;-78
2022/05/01 10:44:59;;;;;;;6.93;3.60;;;13.40;94.30;;;;;;5055799;28;20048;-79
2022/05/01 10:47:36;;;;;;;5.03;3.17;;;13.60;94.70;;;;;;5056030;28;20388;-78
2022/05/01 10:50:07;;;;;;;7.07;3.78;;;13.60;94.50;;;;;;5072591;28;20395;-71
2022/05/01 10:52:33;;;;;;;5.78;3.40;;;13.80;94.50;;;;;;5072327;28;20178;-71
2022/05/01 10:55:04;;;;;;;7.78;3.50;;;14.20;94.70;;;;;;5072516;28;20526;-71
2022/05/01 10:57:30;;;;;;;7.18;3.22;;;14.20;93.80;;;;;;5074169;28;20154;-74
2022/05/01 11:00:18;;;;;;;6.22;3.25;;;14.50;94.40;;;;;;5042169;28;20056;-72
2022/05/01 11:02:51;;;;;;;6.45;3.33;;;14.90;94.00;;;;;;5073466;28;20040;-74
2022/05/01 11:05:43;;;;;;;7.03;3.55;;;15.20;94.20;;;;;;5055602;28;20139;-74
2022/05/01 11:08:18;;;;;;;6.30;3.03;;;15.20;93.30;;;;;;5071817;28;20068;-75
2022/05/01 11:10:44;;;;;;;5.77;3.70;;;15.50;93.60;;;;;;5072342;28;20053;-74
2022/05/01 11:13:14;;;;;;;8.25;2.88;;;15.30;93.80;;;;;;5071838;28;20567;-72
2022/05/01 11:15:50;;;;;;;7.80;3.42;;;15.20;93.50;;;;;;5048775;28;20052;-73
2022/05/01 11:18:27;;;;;;;7.05;3.60;;;15.30;93.70;;;;;;5076093;28;20059;-73
2022/05/01 11:20:52;;;;;;;7.72;3.40;;;15.20;93.90;;;;;;5076160;28;20055;-72
2022/05/01 11:23:33;;;;;;;4.20;2.67;;;15.20;93.80;;;;;;5075681;28;20048;-73
2022/05/01 11:26:07;;;;;;;6.68;3.20;;;15.10;93.90;;;;;;5075626;28;20051;-73
2022/05/01 11:28:47;;;;;;;5.65;3.22;;;15.20;93.80;;;;;;5075942;28;20187;-73
2022/05/01 11:31:38;;;;;;;5.00;3.35;;;15.20;93.70;;;;;;5076822;28;20051;-71
2022/05/01 11:34:24;;;;;;;6.75;3.60;;;15.40;93.90;;;;;;5076607;28;20071;-71
2022/05/01 11:37:01;;;;;;;6.32;3.42;;;15.30;93.70;;;;;;5075095;28;20437;-72
2022/05/01 11:39:45;;;;;;;8.32;3.83;;;15.30;93.70;;;;;;5075123;28;20128;-73
2022/05/01 11:42:36;;;;;;;6.55;3.58;;;15.40;93.90;;;;;;5075137;28;20044;-76
2022/05/01 11:45:04;;;;;;;8.98;3.47;;;15.30;94.10;;;;;;5075304;28;20055;-72
2022/05/01 11:47:34;;;;;;;6.93;3.50;;;15.50;93.80;;;;;;5076498;28;20091;-74
2022/05/01 11:50:01;;;;;;;7.03;3.10;;;15.30;93.90;;;;;;5075475;28;20062;-74
2022/05/01 11:52:51;;;;;;;5.70;3.35;;;15.30;94.00;;;;;;5075365;28;20051;-74
2022/05/01 11:55:19;;;;;;;7.18;3.65;;;15.30;93.80;;;;;;5075517;28;20118;-75
2022/05/01 12:03:29;;;;;;;6.32;3.05;;;15.30;93.40;;;;;;5076276;28;20102;-74
2022/05/01 12:05:55;;;;;;;6.25;3.25;;;15.50;93.40;;;;;;5075219;28;20041;-74
2022/05/01 12:08:21;;;;;;;5.50;3.05;;;15.70;93.70;;;;;;5075918;28;20059;-74
2022/05/01 12:10:47;;;;;;;7.13;3.08;;;15.80;93.10;;;;;;5076114;28;20048;-74
2022/05/01 12:13:21;;;;;;;3.85;2.67;;;15.70;93.20;;;;;;5041559;28;20091;-74
2022/05/01 12:15:48;;;;;;;4.50;3.30;;;16.20;93.50;;;;;;5058430;28;20051;-74
2022/05/01 12:18:14;;;;;;;5.82;2.70;;;16.40;92.60;;;;;;5075771;28;20590;-75
2022/05/01 12:20:39;;;;;;;6.07;2.67;;;16.50;92.30;;;;;;5075952;28;20148;-74
2022/05/01 12:23:22;;;;;;;5.40;2.97;;;16.60;92.70;;;;;;5075860;28;20063;-74
2022/05/01 12:25:52;;;;;;;3.10;2.35;;;17.20;93.00;;;;;;5075804;28;20037;-74
2022/05/01 12:28:20;;;;;;;4.32;2.60;;;17.60;92.30;;;;;;5075897;28;20109;-74
2022/05/01 12:30:50;;;;;;;4.55;2.75;;;18.00;92.40;;;;;;5075677;28;20087;-74
2022/05/01 12:33:26;;;;;;;4.38;2.95;;;18.00;92.30;;;;;;5057810;28;20048;-74
2022/05/01 12:35:57;;;;;;;6.40;3.15;;;18.00;91.80;;;;;;5058110;28;20102;-74
2022/05/01 12:38:27;;;;;;;5.78;3.03;;;17.40;92.20;;;;;;5057865;28;20045;-74
2022/05/01 12:43:53;;;;;;;5.07;2.40;;;17.60;91.90;;;;;;5057727;28;20125;-77
2022/05/01 12:46:30;;;;;;;4.53;2.45;;;16.80;91.40;;;;;;5057953;28;20056;-76
2022/05/01 12:48:58;;;;;;;5.38;2.67;;;16.70;92.10;;;;;;5057752;28;20056;-76
2022/05/01 12:51:35;;;;;;;5.30;2.40;;;16.70;93.10;;;;;;5057706;28;20048;-76
2022/05/01 12:54:17;;;;;;;5.10;2.75;;;16.70;92.10;;;;;;5057686;28;20058;-77
2022/05/01 12:56:45;;;;;;;5.00;2.67;;;16.60;92.90;;;;;;5075900;28;20088;-77
2022/05/01 12:59:30;;;;;;;2.42;2.00;;;16.50;92.70;;;;;;5057664;28;20522;-77
2022/05/01 13:01:58;;;;;;;5.40;2.30;;;16.60;91.70;;;;;;5057673;28;20509;-84
2022/05/01 13:04:26;;;;;;;4.88;2.00;;;16.70;91.40;;;;;;5057386;28;20036;-82
2022/05/01 13:06:53;;;;;;;5.40;2.60;;;16.60;92.50;;;;;;5040514;28;20044;-84
2022/05/01 13:09:19;;;;;;;3.17;2.08;;;16.90;92.60;;;;;;5055970;28;20052;-81
2022/05/01 13:12:26;;;;;;;6.32;3.08;;;17.00;92.60;;;;;;5074231;28;20048;-82
2022/05/01 13:14:57;;;;;;;4.88;3.00;;;16.40;92.70;;;;;;5018114;28;20114;-82
2022/05/01 13:17:27;;;;;;;7.03;3.10;;;16.20;92.20;;;;;;5073832;28;20048;-80
2022/05/01 13:19:54;;;;;;;6.93;2.90;;;15.90;92.30;;;;;;5056786;28;20114;-82
2022/05/01 13:22:19;;;;;;;4.18;2.85;;;15.80;93.20;;;;;;5057027;28;20044;-75
2022/05/01 13:24:46;;;;;;;4.95;3.17;;;15.50;93.10;;;;;;5073703;28;20052;-74
2022/05/01 13:27:13;;;;;;;5.03;3.30;;;15.90;92.80;;;;;;5074620;28;20052;-74
2022/05/01 13:29:40;;;;;;;4.93;2.97;;;16.10;92.80;;;;;;5073847;28;20057;-73